Latest Weather Observations for Low Rocky Point

IDT60801

Issued at 9:02 pm EST Wednesday 27 July 2016 (issued every 30 minutes, with the page automatically refreshed every 10 minutes)

About weather observations | Map of weather stations | Latest weather observations for TAS | Other Formats
Station Details ID: 097080 Name: LOW ROCKY POINT Lat: -42.98 Lon: 145.50 Height: 34.0 m
Data from the previous 72 hours. | See also: Recent months at Low Rocky Point
Date/Time
EST
Temp
°C
App
Temp
°C
Dew
Point
°C
Rel
Hum
%
Delta-T
°C
Wind Press
QNH
hPa
Press
MSL
hPa
Rain since
9am
mm
Dir  Spd
km/h
Gust
km/h
Spd
kts
Gust
kts
27/09:00pm 11.5 0.4 8.2 80 1.6 W 56 76 30 41 1007.4 1007.5 1.2
27/08:47pm 11.4 0.1 8.1 80 1.6 W 57 76 31 41 1007.0 1007.1 1.2
27/08:30pm 11.6 0.4 8.5 81 1.5 W 57 70 31 38 1006.9 1007.0 1.2
27/08:06pm 11.5 0.3 8.4 81 1.5 W 57 76 31 41 1006.4 1006.5 1.2
27/08:00pm 11.7 0.8 8.9 83 1.4 W 56 69 30 37 1006.5 1006.6 1.2
27/07:35pm 11.5 0.0 8.7 83 1.4 W 59 78 32 42 1006.1 1006.2 1.2
27/07:30pm 11.5 -0.8 8.5 82 1.5 W 63 78 34 42 1006.2 1006.3 1.2
27/07:00pm 11.5 0.5 9.1 85 1.2 W 57 76 31 41 1005.6 1005.7 1.2
27/06:30pm 11.4 -0.9 10.1 92 0.7 W 65 87 35 47 1005.0 1005.1 1.2
27/06:00pm 11.2 -1.7 10.7 97 0.3 W 69 87 37 47 1004.0 1004.1 1.2
27/05:33pm 10.8 -3.4 10.6 99 0.1 WNW 76 96 41 52 1003.7 1003.8 1.2
27/05:30pm 10.8 -3.0 10.6 99 0.1 WNW 74 91 40 49 1003.6 1003.7 1.0
27/05:04pm 10.6 -3.7 10.4 99 0.1 WNW 76 95 41 51 1003.1 1003.2 0.8
27/05:00pm 10.4 -3.9 10.2 99 0.1 WNW 76 93 41 50 1003.1 1003.2 0.8
27/04:35pm 9.9 -3.8 9.6 98 0.2 WNW 72 93 39 50 1002.9 1003.0 0.8
27/04:30pm 9.8 -4.0 9.5 98 0.1 WNW 72 87 39 47 1003.1 1003.2 0.8
27/04:04pm 9.4 -4.6 8.6 95 0.4 WNW 72 91 39 49 1002.9 1003.0 0.8
27/04:00pm 9.3 -4.4 8.4 94 0.4 WNW 70 87 38 47 1003.0 1003.1 0.8
27/03:30pm 9.1 -5.2 7.5 90 0.8 WNW 72 96 39 52 1003.3 1003.4 0.4
27/03:02pm 9.1 -4.5 6.2 82 1.3 WNW 67 85 36 46 1003.0 1003.1 0.0
27/03:00pm 9.0 -4.6 6.1 82 1.3 WNW 67 82 36 44 1003.0 1003.1 0.0
27/02:30pm 9.1 -3.5 5.7 79 1.5 NW 61 83 33 45 1003.8 1003.9 0.0
27/02:19pm 8.8 -3.8 5.7 81 1.4 WNW 61 80 33 43 1003.7 1003.8 0.0
27/02:00pm 9.0 -3.7 5.2 77 1.7 NW 61 74 33 40 1004.1 1004.2 0.0
27/01:39pm 8.9 -1.3 5.3 78 1.6 WNW 48 69 26 37 1004.5 1004.6 0.0
27/01:30pm 8.8 -1.4 5.0 77 1.7 WNW 48 59 26 32 1004.8 1004.9 0.0
27/01:00pm 8.7 -1.8 3.9 72 2.1 WNW 48 57 26 31 1005.1 1005.2 0.0
27/12:42pm 7.5 -5.5 3.6 76 1.7 WNW 61 78 33 42 1005.5 1005.6 0.0
27/12:33pm 7.9 -3.7 4.1 77 1.6 WNW 54 78 29 42 1005.5 1005.6 0.0
27/12:31pm 8.8 -1.9 4.6 75 1.9 WNW 50 72 27 39 1005.6 1005.7 0.0
27/12:30pm 8.7 -1.6 4.5 75 1.9 WNW 48 57 26 31 1005.7 1005.8 0.0
27/12:00pm 8.4 -2.0 4.0 74 1.9 WNW 48 59 26 32 1006.3 1006.4 0.0
27/11:30am 8.6 -0.5 3.8 72 2.1 WNW 41 52 22 28 1006.3 1006.4 0.0
27/11:00am 8.3 -0.5 3.8 73 2.0 W 39 52 21 28 1006.1 1006.2 0.0
27/10:49am 9.1 1.0 3.5 68 2.4 W 35 54 19 29 1005.9 1006.0 0.0
27/10:30am 9.1 1.5 2.9 65 2.6 WNW 32 43 17 23 1006.2 1006.3 0.0
27/10:00am 8.6 1.4 2.8 67 2.5 W 30 35 16 19 1006.2 1006.3 0.0
27/09:30am 8.2 -0.5 2.2 66 2.5 WNW 37 50 20 27 1006.0 1006.1 0.0
27/09:00am 7.6 -0.1 2.3 69 2.2 WSW 32 43 17 23 1005.8 1005.9 15.2
27/08:34am 6.2 -3.3 1.9 74 1.7 W 41 59 22 32 1005.7 1005.8 15.2
27/08:30am 6.7 -2.6 2.8 76 1.6 WSW 41 59 22 32 1005.6 1005.7 15.2
27/08:29am 6.8 -2.1 2.9 76 1.6 WSW 39 59 21 32 1005.6 1005.7 15.2
27/08:00am 7.0 1.8 3.4 78 1.5 W 20 43 11 23 1004.9 1005.0 15.2
27/07:30am 7.1 -2.2 2.8 74 1.8 WSW 41 59 22 32 1004.6 1004.7 15.0
27/07:00am 6.3 -0.7 2.0 74 1.8 SW 28 48 15 26 1003.9 1004.0 15.0
27/06:56am 6.2 -2.1 1.9 74 1.7 SW 35 52 19 28 1003.8 1003.9 15.0
27/06:49am 6.8 -1.4 2.5 74 1.8 WSW 35 50 19 27 1003.6 1003.7 15.0
27/06:47am 7.4 -0.8 2.9 73 1.9 WSW 35 50 19 27 1003.5 1003.6 15.0
27/06:30am 6.8 1.1 2.7 75 1.7 W 22 30 12 16 1003.3 1003.4 15.0
27/06:10am 6.1 -3.8 1.4 72 1.9 WSW 43 61 23 33 1003.2 1003.3 15.0
27/06:00am 7.4 -0.2 3.1 74 1.8 WSW 32 50 17 27 1002.6 1002.7 15.0
27/05:30am 7.1 -0.2 2.6 73 1.9 WSW 30 46 16 25 1002.1 1002.2 15.0
27/05:00am 6.9 -0.7 3.0 76 1.6 WSW 32 44 17 24 1001.8 1001.9 15.0
27/04:30am 6.4 -2.4 3.7 83 1.1 SW 39 52 21 28 1001.1 1001.2 15.0
27/04:24am 6.2 -0.5 3.9 85 1.0 WSW 28 52 15 28 1000.9 1001.0 15.0
27/04:00am 5.2 -0.9 2.9 85 1.0 SSW 24 54 13 29 1000.4 1000.5 14.8
27/03:46am 7.0 -0.3 4.5 84 1.1 SW 32 57 17 31 1000.0 1000.1 14.6
27/03:30am 6.6 -0.7 4.6 87 0.9 SW 32 43 17 23 999.7 999.8 14.6
27/03:00am 6.0 -1.4 4.8 92 0.5 SW 33 61 18 33 999.4 999.5 14.6
27/02:30am 6.2 -2.2 5.5 95 0.3 SW 39 57 21 31 998.8 998.8 14.6
27/02:18am 6.5 0.2 5.6 94 0.4 SW 28 50 15 27 998.4 998.4 14.4
27/02:00am 6.2 -0.5 5.6 96 0.3 SSW 30 43 16 23 997.8 997.9 14.4
27/01:30am 6.2 -1.0 5.9 98 0.1 SSW 33 48 18 26 997.0 997.0 14.4
27/01:21am 6.3 -0.7 6.0 98 0.1 SW 32 50 17 27 996.8 996.8 14.4
27/01:00am 6.5 -1.4 6.1 97 0.2 SW 37 54 20 29 996.2 996.3 13.6
27/12:36am 7.7 -3.3 7.0 95 0.3 WSW 54 72 29 39 995.4 995.4 12.6
27/12:30am 7.7 -3.8 7.0 95 0.3 W 57 72 31 39 994.9 994.9 12.4
27/12:01am 8.3 -4.9 6.3 87 0.9 WNW 65 87 35 47 994.7 994.7 11.2
27/12:00am 8.1 -5.2 5.7 85 1.1 WNW 65 87 35 47 994.6 994.7 11.2
 
Date/Time
EST
Temp
°C
App
Temp
°C
Dew
Point
°C
Rel
Hum
%
Delta-T
°C
Wind Press
QNH
hPa
Press
MSL
hPa
Rain since
9am
mm
Dir  Spd
km/h
Gust
km/h
Spd
kts
Gust
kts
26/11:59pm 8.4 -5.2 6.0 85 1.1 WNW 67 87 36 47 994.7 994.7 11.2
26/11:35pm 10.2 -1.8 8.3 88 0.9 NW 61 80 33 43 993.5 993.5 11.2
26/11:30pm 9.9 -2.1 8.0 88 0.9 NW 61 76 33 41 993.6 993.6 11.2
26/11:11pm 10.0 -1.3 8.1 88 0.9 NW 57 76 31 41 993.9 993.9 11.2
26/11:00pm 9.8 -1.9 7.7 87 1.0 NW 59 74 32 40 994.0 994.1 11.2
26/10:48pm 10.2 -1.0 8.3 88 0.9 NW 57 76 31 41 994.2 994.2 11.2
26/10:30pm 9.7 -2.4 7.8 88 0.9 NW 61 76 33 41 994.0 994.0 11.2
26/10:00pm 9.3 -2.5 7.6 89 0.8 NW 59 82 32 44 994.6 994.7 11.2
26/09:37pm 9.7 -1.5 8.5 92 0.6 NW 57 76 31 41 994.7 994.7 11.2
26/09:30pm 9.6 -1.4 8.5 93 0.5 NW 56 72 30 39 994.7 994.7 11.2
26/09:10pm 8.6 0.9 8.5 99 0.0 NNW 39 63 21 34 995.2 995.2 11.2
26/09:08pm 8.1 1.0 8.0 99 0.0 NNW 35 57 19 31 995.4 995.4 11.2
26/09:00pm 7.4 1.1 7.3 99 0.0 NNW 30 43 16 23 995.5 995.6 11.2
26/08:30pm 5.6 -0.9 4.9 95 0.3 N 28 37 15 20 996.2 996.2 10.8
26/08:10pm 7.7 -2.2 6.5 92 0.6 NNW 48 65 26 35 996.3 996.3 10.8
26/08:00pm 7.5 -2.5 6.0 90 0.7 NW 48 70 26 38 996.2 996.3 10.8
26/07:56pm 8.1 -1.5 6.2 88 0.9 NW 46 70 25 38 996.6 996.6 10.2
26/07:30pm 8.8 -0.9 7.3 90 0.7 NW 48 61 26 33 996.7 996.7 10.0
26/07:00pm 8.4 -2.5 7.3 93 0.5 NW 54 67 29 36 996.7 996.8 10.0
26/06:33pm 8.6 -1.5 7.5 93 0.5 NW 50 69 27 37 997.2 997.2 10.0
26/06:30pm 8.8 -0.9 7.6 92 0.6 NW 48 65 26 35 997.1 997.1 10.0
26/06:00pm 7.7 -0.8 6.8 94 0.4 NW 41 56 22 30 997.5 997.6 10.0
26/05:30pm 6.9 -2.8 6.0 94 0.4 NW 46 61 25 33 998.0 998.0 10.0
26/05:28pm 6.9 -2.8 6.0 94 0.4 NW 46 65 25 35 998.0 998.0 10.0
26/05:00pm 6.6 -5.0 5.7 94 0.4 W 56 76 30 41 998.2 998.3 9.8
26/04:52pm 7.2 -3.3 5.8 91 0.6 NW 50 69 27 37 998.0 998.0 8.8
26/04:51pm 7.3 -3.1 5.9 91 0.6 NW 50 69 27 37 998.0 998.0 8.8
26/04:37pm 7.9 -2.7 6.7 92 0.6 NW 52 70 28 38 997.8 997.8 8.8
26/04:30pm 7.8 -1.7 6.7 93 0.5 NW 46 69 25 37 997.7 997.7 8.8
26/04:28pm 7.7 -1.3 6.6 93 0.5 NW 43 69 23 37 997.7 997.7 8.8
26/04:25pm 7.5 0.1 6.6 94 0.4 NW 35 57 19 31 997.8 997.8 8.6
26/04:22pm 6.7 -0.5 5.7 93 0.4 WNW 33 52 18 28 998.0 998.0 8.6
26/04:03pm 6.3 -3.8 4.0 85 1.0 WNW 46 61 25 33 998.3 998.3 6.6
26/04:00pm 7.5 -1.8 5.1 85 1.1 NW 43 59 23 32 998.3 998.4 6.4
26/03:56pm 8.4 0.1 5.9 84 1.1 NW 39 57 21 31 998.2 998.2 6.4
26/03:30pm 8.0 -3.4 5.1 82 1.3 NW 54 65 29 35 998.3 998.3 6.4
26/03:00pm 8.4 -2.4 6.0 85 1.1 NW 52 63 28 34 998.0 998.1 6.4
26/02:30pm 7.9 -0.7 6.4 90 0.7 WNW 41 61 22 33 998.4 998.4 6.4
26/02:25pm 7.5 -1.6 5.8 89 0.8 WNW 43 61 23 33 998.6 998.6 6.4
26/02:00pm 8.0 -2.7 6.6 91 0.7 WNW 52 65 28 35 998.3 998.4 6.4
26/01:52pm 7.5 -2.0 6.6 94 0.4 WNW 46 65 25 35 998.3 998.3 6.4
26/01:30pm 7.0 -2.0 6.6 97 0.2 WNW 43 50 23 27 998.7 998.7 6.4
26/01:06pm 6.7 -4.1 5.8 94 0.4 WNW 52 83 28 45 998.6 998.6 4.8
26/01:00pm 7.6 -1.3 6.9 95 0.3 WNW 43 57 23 31 998.5 998.6 4.6
26/12:38pm 6.7 -4.2 5.5 92 0.5 WNW 52 82 28 44 998.7 998.7 3.0
26/12:30pm 6.7 -4.2 5.5 92 0.5 W 52 65 28 35 998.9 999.0 2.4
26/12:19pm 7.4 -3.6 5.2 86 1.0 WNW 52 74 28 40 999.1 999.2 1.4
26/12:00pm 7.9 -2.2 5.9 87 0.9 WNW 48 59 26 32 998.9 999.0 1.2
26/11:30am 7.4 -3.0 6.0 91 0.6 W 50 65 27 35 999.1 999.2 1.2
26/11:10am 6.9 -5.4 5.2 89 0.8 WNW 59 87 32 47 999.0 999.1 1.2
26/11:05am 6.7 -5.7 4.7 87 0.9 WNW 59 87 32 47 999.0 999.1 1.0
26/11:03am 7.5 -4.4 5.3 86 1.0 WNW 57 83 31 45 998.7 998.7 0.8
26/11:01am 7.9 -3.0 5.5 85 1.1 W 52 72 28 39 998.9 999.0 0.8
26/11:00am 7.9 -2.6 5.5 85 1.1 W 50 65 27 35 998.9 999.0 0.8
26/10:33am 7.3 -4.5 5.0 85 1.0 WNW 56 74 30 40 998.7 998.7 0.8
26/10:30am 7.3 -4.7 5.0 85 1.0 WNW 57 74 31 40 998.6 998.6 0.6
26/10:00am 7.3 -4.7 4.8 84 1.1 W 57 82 31 44 998.3 998.4 0.4
26/09:30am 7.1 -5.0 4.2 82 1.3 W 57 78 31 42 998.3 998.3 0.2
26/09:15am 8.0 -4.6 3.5 73 1.9 W 59 82 32 44 998.3 998.3 0.0
26/09:00am 8.4 -4.2 3.8 73 2.0 W 59 72 32 39 997.9 998.0 11.0
26/08:57am 8.5 -4.0 4.3 75 1.8 W 59 78 32 42 997.9 997.9 11.0
26/08:30am 7.8 -6.2 4.4 79 1.5 WNW 67 80 36 43 997.4 997.4 11.0
26/08:00am 6.8 -6.2 3.4 79 1.4 W 61 83 33 45 997.3 997.4 11.0
26/07:33am 8.1 -5.6 3.6 73 1.9 WNW 65 83 35 45 996.8 996.8 11.0
26/07:30am 8.0 -6.1 3.5 73 1.9 WNW 67 83 36 45 996.7 996.7 11.0
26/07:00am 7.3 -4.9 3.7 78 1.6 W 57 80 31 43 996.2 996.3 11.0
26/06:30am 8.3 -6.4 2.5 67 2.4 W 69 95 37 51 995.2 995.2 11.0
26/06:00am 8.5 -5.3 3.1 69 2.3 W 65 85 35 46 994.7 994.8 11.0
26/05:30am 7.9 -5.8 3.8 75 1.8 WNW 65 87 35 47 993.9 993.9 11.0
26/05:11am 7.8 -4.1 4.4 79 1.5 W 56 76 30 41 994.0 994.0 11.0
26/05:05am 6.7 -7.5 3.3 79 1.4 W 67 96 36 52 993.9 993.9 11.0
26/05:00am 6.5 -9.1 2.9 78 1.5 W 74 98 40 53 993.8 993.9 11.0
26/04:30am 7.5 -8.3 3.7 77 1.6 W 76 102 41 55 992.5 992.5 10.8
26/04:22am 7.5 -7.6 3.6 76 1.7 W 72 96 39 52 992.6 992.6 10.8
26/04:19am 8.3 -6.3 4.1 75 1.8 W 70 95 38 51 992.2 992.2 10.8
26/04:05am 7.3 -5.2 4.3 81 1.3 W 59 78 32 42 992.2 992.2 10.8
26/04:00am 6.6 -6.4 3.6 81 1.3 W 61 72 33 39 992.3 992.4 10.8
26/03:54am 6.0 -8.6 3.2 82 1.2 W 69 98 37 53 992.4 992.4 10.8
26/03:48am 6.4 -8.3 3.4 81 1.3 W 70 98 38 53 992.5 992.5 10.6
26/03:47am 6.4 -8.2 2.9 78 1.5 W 69 98 37 53 992.2 992.2 10.6
26/03:44am 8.1 -5.5 4.3 77 1.7 WNW 65 83 35 45 991.9 991.9 10.6
26/03:30am 7.8 -6.9 3.7 75 1.8 WNW 70 85 38 46 991.6 991.6 10.6
26/03:00am 6.4 -8.7 3.6 82 1.2 W 72 96 39 52 991.6 991.6 10.6
26/02:34am 7.3 -7.4 3.7 78 1.5 W 70 89 38 48 991.3 991.3 10.4
26/02:30am 6.7 -8.9 2.8 76 1.6 W 74 89 40 48 991.2 991.2 10.4
26/02:00am 8.0 -6.7 3.7 74 1.9 W 70 89 38 48 990.1 990.1 10.4
26/01:48am 7.6 -7.4 4.0 78 1.6 W 72 91 39 49 990.5 990.5 10.4
26/01:30am 8.0 -8.2 3.5 73 1.9 W 78 91 42 49 989.8 989.8 10.4
26/01:00am 8.4 -7.8 3.7 72 2.1 W 78 98 42 53 989.2 989.2 10.4
26/12:35am 9.0 -6.7 4.4 73 2.0 W 76 96 41 52 988.8 988.8 10.4
26/12:30am 8.7 -6.2 4.5 75 1.9 WNW 72 93 39 50 988.8 988.8 10.4
26/12:26am 8.5 -5.8 4.5 76 1.8 WNW 69 93 37 50 988.6 988.6 10.4
26/12:00am 8.1 -5.2 3.9 75 1.8 W 63 83 34 45 988.8 988.8 10.4
 
Date/Time
EST
Temp
°C
App
Temp
°C
Dew
Point
°C
Rel
Hum
%
Delta-T
°C
Wind Press
QNH
hPa
Press
MSL
hPa
Rain since
9am
mm
Dir  Spd
km/h
Gust
km/h
Spd
kts
Gust
kts
25/11:53pm 7.6 -8.1 4.4 80 1.4 W 76 104 41 56 988.9 988.9 10.4
25/11:49pm 7.5 -9.0 4.3 80 1.4 W 80 104 43 56 988.9 988.9 10.4
25/11:46pm 7.5 -8.7 3.9 78 1.5 W 78 104 42 56 988.7 988.7 10.4
25/11:30pm 7.9 -6.4 5.7 86 1.0 WNW 70 96 38 52 988.5 988.5 10.2
25/11:02pm 8.7 -4.2 5.8 82 1.3 WNW 63 82 34 44 987.9 987.9 9.8
25/11:00pm 8.7 -4.2 6.0 83 1.3 WNW 63 74 34 40 988.1 988.1 9.8
25/10:41pm 7.7 -7.1 5.0 83 1.2 WNW 72 96 39 52 987.9 987.9 9.8
25/10:38pm 8.7 -5.5 5.1 78 1.6 WNW 69 96 37 52 987.7 987.7 9.8
25/10:36pm 9.1 -4.3 5.5 78 1.6 WNW 65 85 35 46 987.8 987.8 9.8
25/10:30pm 9.0 -4.3 5.6 79 1.5 WNW 65 80 35 43 988.0 988.0 9.8
25/10:09pm 7.4 -4.0 4.9 84 1.1 W 54 72 29 39 988.3 988.3 9.8
25/10:00pm 7.4 -7.8 5.0 85 1.1 WNW 74 102 40 55 988.1 988.1 9.8
25/09:53pm 7.1 -6.5 4.1 81 1.3 WNW 65 102 35 55 987.9 987.9 9.8
25/09:51pm 7.9 -4.9 4.5 79 1.5 WNW 61 102 33 55 987.5 987.5 9.8
25/09:50pm 8.9 -2.9 5.5 79 1.5 WNW 57 95 31 51 987.5 987.5 9.8
25/09:48pm 9.1 -2.5 6.0 81 1.4 WNW 56 72 30 39 987.6 987.6 9.6
25/09:45pm 9.0 -2.7 6.1 82 1.3 WNW 57 70 31 38 987.7 987.7 9.6
25/09:30pm 7.4 -7.2 4.0 79 1.5 WNW 70 93 38 50 987.7 987.7 9.6
25/09:03pm 9.5 -3.8 5.7 77 1.7 WNW 65 83 35 45 987.4 987.4 9.6
25/09:00pm 9.7 -4.3 6.2 79 1.6 WNW 69 83 37 45 987.5 987.5 9.6
25/08:30pm 9.4 -2.9 7.0 85 1.1 WNW 61 80 33 43 986.9 986.9 9.6
25/08:27pm 9.2 -2.6 7.3 88 0.9 WNW 59 78 32 42 987.1 987.1 9.6
25/08:18pm 8.8 -2.2 6.9 88 0.9 WNW 54 78 29 42 986.7 986.7 9.6
25/08:15pm 8.2 -2.1 6.5 89 0.8 WNW 50 70 27 38 986.9 986.9 9.6
25/08:08pm 7.4 -5.4 6.2 92 0.5 WNW 63 83 34 45 987.6 987.6 9.6
25/08:00pm 7.8 -6.3 6.4 91 0.6 WNW 70 93 38 50 987.2 987.2 9.4
25/07:38pm 8.0 -2.9 7.2 95 0.4 WNW 54 87 29 47 986.7 986.7 9.2
25/07:32pm 7.9 -0.8 7.5 97 0.2 W 43 65 23 35 986.8 986.8 9.2
25/07:30pm 7.6 -0.5 7.2 97 0.2 W 39 50 21 27 986.9 986.9 9.0
25/07:21pm 7.0 -1.1 6.9 99 0.0 W 39 52 21 28 986.8 986.8 9.0
25/07:11pm 6.3 -4.5 6.0 98 0.1 NW 52 102 28 55 987.0 987.0 8.4
25/07:09pm 6.5 -3.9 6.2 98 0.1 NNW 50 102 27 55 986.2 986.2 8.2
25/07:00pm 6.1 -2.3 5.7 97 0.2 N 39 70 21 38 986.3 986.3 6.6
25/06:30pm 6.5 -3.2 5.6 94 0.4 N 46 69 25 37 986.3 986.3 4.0
25/06:00pm 7.9 -0.9 5.7 86 1.0 N 41 61 22 33 986.5 986.5 0.8
25/05:43pm 8.9 1.8 5.6 80 1.5 N 32 54 17 29 986.5 986.5 0.2
25/05:30pm 8.5 2.5 5.4 81 1.4 N 26 39 14 21 986.8 986.8 0.2
25/05:00pm 8.8 1.7 5.7 81 1.4 N 32 44 17 24 988.0 988.0 0.2
25/04:30pm 8.9 2.6 5.5 79 1.5 N 28 43 15 23 989.0 989.0 0.2
25/04:00pm 9.6 4.0 5.6 76 1.8 N 24 35 13 19 990.1 990.1 0.2
25/03:30pm 10.3 4.0 5.9 74 2.0 N 28 41 15 22 991.3 991.3 0.2
25/03:00pm 10.5 4.3 6.1 74 2.1 N 28 39 15 21 992.0 992.0 0.2
25/02:39pm 10.9 4.0 6.6 75 2.0 NNW 32 50 17 27 992.6 992.6 0.2
25/02:30pm 10.7 2.0 6.1 73 2.1 NNW 41 50 22 27 992.7 992.7 0.2
25/02:00pm 10.4 0.2 5.4 71 2.3 NW 48 61 26 33 993.7 993.8 0.2
25/01:30pm 10.9 2.8 7.2 78 1.8 NW 39 50 21 27 994.6 994.6 0.2
25/01:00pm 10.4 1.4 7.1 80 1.6 NW 44 54 24 29 995.2 995.3 0.2
25/12:30pm 10.3 2.8 7.9 85 1.2 NW 37 44 20 24 995.8 995.8 0.2
25/12:00pm 10.0 3.6 8.6 91 0.7 WNW 32 41 17 22 996.7 996.8 0.2
25/11:30am 8.9 0.3 8.0 94 0.4 WNW 43 50 23 27 997.2 997.2 0.2
25/11:00am 9.9 4.3 8.7 92 0.6 WNW 28 35 15 19 997.5 997.6 0.2
25/10:30am 9.3 3.7 8.8 97 0.2 WNW 28 35 15 19 997.8 997.8 0.2
25/10:00am 9.1 3.9 9.0 99 0.0 WNW 26 32 14 17 997.9 998.0 0.2
25/09:30am 8.9 3.3 8.8 99 0.0 W 28 32 15 17 997.9 997.9 0.0
25/09:00am 8.6 2.9 8.5 99 0.0 WNW 28 35 15 19 997.8 997.9 15.8
25/08:30am 7.6 3.4 7.5 99 0.0 N 19 24 10 13 997.7 997.7 15.2
25/08:00am 7.6 3.4 7.5 99 0.0 N 19 24 10 13 998.0 998.1 15.2
25/07:30am 7.7 4.3 7.6 99 0.0 N 15 22 8 12 998.0 998.0 15.2
25/07:00am 8.4 3.5 8.3 99 0.0 NW 24 30 13 16 997.9 998.0 14.8
25/06:30am 7.7 1.8 7.6 99 0.0 NNW 28 39 15 21 998.2 998.2 14.4
25/06:00am 7.0 1.7 6.9 99 0.0 N 24 32 13 17 997.4 997.5 12.8
25/05:30am 6.8 1.9 6.7 99 0.0 N 22 32 12 17 997.7 997.7 12.8
25/05:00am 6.9 2.4 6.8 99 0.0 N 20 30 11 16 997.8 997.9 12.8
25/04:30am 6.9 3.3 6.8 99 0.0 N 15 22 8 12 997.8 997.8 12.4
25/04:00am 7.3 3.4 7.2 99 0.0 N 17 24 9 13 998.0 998.1 12.2
25/03:30am 7.3 2.5 7.2 99 0.0 N 22 28 12 15 998.2 998.2 11.2
25/03:00am 6.9 1.6 6.8 99 0.0 N 24 32 13 17 998.1 998.2 8.8
25/02:30am 6.0 0.9 5.9 99 0.0 N 22 30 12 16 998.3 998.3 8.6
25/02:00am 6.1 1.0 6.0 99 0.0 N 22 30 12 16 998.5 998.6 8.6
25/01:30am 5.9 0.8 5.8 99 0.0 N 22 28 12 15 998.5 998.5 8.6
25/01:00am 6.4 1.8 6.3 99 0.0 N 20 28 11 15 998.6 998.7 8.6
25/12:30am 6.3 0.5 6.2 99 0.0 N 26 35 14 19 998.8 998.8 8.6
25/12:00am 6.5 1.1 6.4 99 0.0 N 24 35 13 19 999.2 999.3 8.6
 
Date/Time
EST
Temp
°C
App
Temp
°C
Dew
Point
°C
Rel
Hum
%
Delta-T
°C
Wind Press
QNH
hPa
Press
MSL
hPa
Rain since
9am
mm
Dir  Spd
km/h
Gust
km/h
Spd
kts
Gust
kts
24/11:30pm 6.0 1.5 5.9 99 0.0 N 19 28 10 15 999.3 999.4 8.6
24/11:00pm 6.2 0.7 6.1 99 0.0 N 24 32 13 17 999.5 999.6 8.6
24/10:30pm 6.2 0.7 6.1 99 0.0 N 24 32 13 17 999.8 999.9 8.6
24/10:00pm 5.6 0.4 5.5 99 0.0 N 22 28 12 15 1000.0 1000.1 8.4
24/09:30pm 5.1 -0.2 5.0 99 0.0 NNE 22 30 12 16 1000.1 1000.2 8.4

Other Formats:

Comma delimited format used in spreadsheet applications
http://www.bom.gov.au/fwo/IDT60801/IDT60801.95961.axf

JavaScript Object Notation format (JSON) in row-major order
http://www.bom.gov.au/fwo/IDT60801/IDT60801.95961.json